createdAt,value
2022-09-25T00:02:14.364Z,12.75
2022-09-25T00:04:42.413Z,12.74
2022-09-25T00:07:10.324Z,12.74
2022-09-25T00:09:38.296Z,12.74
2022-09-25T00:12:06.180Z,12.73
2022-09-25T00:14:34.016Z,12.69
2022-09-25T00:17:01.780Z,12.64
2022-09-25T00:19:48.018Z,12.63
2022-09-25T00:22:16.036Z,12.64
2022-09-25T00:24:43.932Z,12.65
2022-09-25T00:27:12.248Z,12.67
2022-09-25T00:29:40.660Z,12.68
2022-09-25T00:32:09.543Z,12.67
2022-09-25T00:34:37.911Z,12.58
2022-09-25T00:37:05.794Z,12.51
2022-09-25T00:39:33.713Z,12.50
2022-09-25T00:42:01.536Z,12.50
2022-09-25T00:44:52.659Z,12.43
2022-09-25T00:47:22.869Z,12.42
2022-09-25T00:49:51.535Z,12.41
2022-09-25T00:52:19.540Z,12.41
2022-09-25T00:54:49.833Z,12.39
2022-09-25T00:57:19.450Z,12.41
2022-09-25T00:59:54.792Z,12.42
2022-09-25T01:02:24.866Z,12.42
2022-09-25T01:04:52.809Z,12.43
2022-09-25T01:07:20.908Z,12.45
2022-09-25T01:09:49.162Z,12.45
2022-09-25T01:12:17.083Z,12.46
2022-09-25T01:14:44.885Z,12.46
2022-09-25T01:17:16.419Z,12.46
2022-09-25T01:19:48.055Z,12.47
2022-09-25T01:22:22.181Z,12.49
2022-09-25T01:24:58.960Z,12.48
2022-09-25T01:27:47.650Z,12.47
2022-09-25T01:30:17.744Z,12.47
2022-09-25T01:32:51.318Z,12.45
2022-09-25T01:35:22.480Z,12.45
2022-09-25T01:37:54.494Z,12.46
2022-09-25T01:40:26.554Z,12.46
2022-09-25T01:42:57.113Z,12.46
2022-09-25T01:45:28.687Z,12.43
2022-09-25T01:47:57.222Z,12.38
2022-09-25T01:50:27.904Z,12.36
2022-09-25T01:52:58.927Z,12.35
2022-09-25T01:55:30.568Z,12.34
2022-09-25T01:58:03.212Z,12.33
2022-09-25T02:00:32.581Z,12.30
2022-09-25T02:03:05.817Z,12.26
2022-09-25T02:05:36.041Z,12.24
2022-09-25T02:08:07.676Z,12.20
2022-09-25T02:10:36.624Z,12.17
2022-09-25T02:13:08.093Z,12.13
2022-09-25T02:15:37.948Z,12.11
2022-09-25T02:18:26.199Z,12.07
2022-09-25T02:20:57.568Z,12.06
2022-09-25T02:23:29.853Z,12.05
2022-09-25T02:26:03.125Z,12.05
2022-09-25T02:28:31.217Z,12.04
2022-09-25T02:31:00.919Z,12.00
2022-09-25T02:33:29.081Z,11.98
2022-09-25T02:35:58.720Z,11.90
2022-09-25T02:38:26.904Z,11.83
2022-09-25T02:40:56.199Z,11.79
2022-09-25T02:43:33.703Z,11.71
2022-09-25T02:46:06.742Z,11.65
2022-09-25T02:48:41.235Z,11.63
2022-09-25T02:51:12.963Z,11.62
2022-09-25T02:53:43.128Z,11.61
2022-09-25T02:56:13.825Z,11.62
2022-09-25T02:58:42.940Z,11.61
2022-09-25T03:01:13.624Z,11.58
2022-09-25T03:03:41.923Z,11.56
2022-09-25T03:06:10.199Z,11.56
2022-09-25T03:08:48.741Z,11.55
2022-09-25T03:11:19.260Z,11.54
2022-09-25T03:13:54.848Z,11.54
2022-09-25T03:16:29.967Z,11.52
2022-09-25T03:18:57.910Z,11.53
2022-09-25T03:21:25.899Z,11.53
2022-09-25T03:23:56.519Z,11.54
2022-09-25T03:26:24.620Z,11.54
2022-09-25T03:28:52.632Z,11.52
2022-09-25T03:31:20.680Z,11.51
2022-09-25T03:33:48.740Z,11.51
2022-09-25T03:36:18.518Z,11.50
2022-09-25T03:38:48.626Z,11.50
2022-09-25T03:41:20.465Z,11.48
2022-09-25T03:43:51.336Z,11.48
2022-09-25T03:46:20.263Z,11.46
2022-09-25T03:48:48.395Z,11.45
2022-09-25T03:51:16.250Z,11.45
2022-09-25T03:53:44.002Z,11.44
2022-09-25T03:56:12.800Z,11.42
2022-09-25T03:58:41.049Z,11.41
2022-09-25T04:01:10.530Z,11.41
2022-09-25T04:03:39.283Z,11.40
2022-09-25T04:06:08.469Z,11.38
2022-09-25T04:08:36.375Z,11.37
2022-09-25T04:11:04.664Z,11.35
2022-09-25T04:13:33.787Z,11.34
2022-09-25T04:16:03.449Z,11.34
2022-09-25T04:18:31.821Z,11.32
2022-09-25T04:20:59.983Z,11.30
2022-09-25T04:23:28.087Z,11.27
2022-09-25T04:25:56.028Z,11.22
2022-09-25T04:28:24.013Z,11.21
2022-09-25T04:30:51.870Z,11.19
2022-09-25T04:33:37.048Z,11.19
2022-09-25T04:36:05.296Z,11.19
2022-09-25T04:38:33.605Z,11.18
2022-09-25T04:41:01.930Z,11.20
2022-09-25T04:43:29.996Z,11.21
2022-09-25T04:46:01.582Z,11.20
2022-09-25T04:48:29.835Z,11.21
2022-09-25T04:50:58.024Z,11.23
2022-09-25T04:53:26.709Z,11.24
2022-09-25T04:56:00.094Z,11.23
2022-09-25T04:58:28.018Z,11.26
2022-09-25T05:00:55.802Z,11.27
2022-09-25T05:03:23.912Z,11.29
2022-09-25T05:05:51.796Z,11.33
2022-09-25T05:08:19.657Z,11.37
2022-09-25T05:10:47.401Z,11.41
2022-09-25T05:13:15.400Z,11.48
2022-09-25T05:15:43.406Z,11.57
2022-09-25T05:18:17.558Z,11.66
2022-09-25T05:20:45.854Z,11.76
2022-09-25T05:23:13.767Z,11.90
2022-09-25T05:25:41.876Z,12.02
2022-09-25T05:28:10.601Z,12.16
2022-09-25T05:30:39.115Z,12.31
2022-09-25T05:33:06.909Z,12.47
2022-09-25T05:35:36.012Z,12.63
2022-09-25T05:38:06.126Z,12.80
2022-09-25T05:40:34.153Z,12.97
2022-09-25T05:43:02.897Z,13.15
2022-09-25T05:45:30.860Z,13.35
2022-09-25T05:48:02.649Z,13.56
2022-09-25T05:50:31.705Z,13.80
2022-09-25T05:53:00.424Z,14.05
2022-09-25T05:55:28.246Z,14.31
2022-09-25T05:58:00.649Z,14.61
2022-09-25T06:00:28.609Z,14.92
2022-09-25T06:02:56.636Z,15.21
2022-09-25T06:05:24.608Z,15.53
2022-09-25T06:07:55.703Z,15.91
2022-09-25T06:10:25.411Z,16.28
2022-09-25T06:12:57.976Z,16.61
2022-09-25T06:15:27.265Z,16.93
2022-09-25T06:17:55.668Z,17.28
2022-09-25T06:20:24.293Z,17.60
2022-09-25T06:22:53.719Z,17.88
2022-09-25T06:25:23.236Z,18.22
2022-09-25T06:27:53.381Z,18.53
2022-09-25T06:30:21.731Z,18.83
2022-09-25T06:32:50.953Z,19.06
2022-09-25T06:35:18.820Z,19.27
2022-09-25T06:37:46.867Z,19.47
2022-09-25T06:40:15.608Z,19.68
2022-09-25T06:42:45.571Z,19.90
2022-09-25T06:45:13.660Z,20.08
2022-09-25T06:47:41.505Z,20.31
2022-09-25T06:50:11.223Z,20.54
2022-09-25T06:52:42.142Z,20.72
2022-09-25T06:55:10.321Z,20.88
2022-09-25T06:57:38.343Z,21.03
2022-09-25T07:00:07.842Z,21.30
2022-09-25T07:02:54.464Z,21.60
2022-09-25T07:05:22.375Z,21.86
2022-09-25T07:07:50.406Z,22.12
2022-09-25T07:10:18.247Z,22.41
2022-09-25T07:12:47.446Z,22.67
2022-09-25T07:15:15.635Z,22.85
2022-09-25T07:17:46.177Z,23.01
2022-09-25T07:20:14.799Z,23.14
2022-09-25T07:22:42.938Z,23.26
2022-09-25T07:25:10.966Z,23.43
2022-09-25T07:27:39.323Z,23.52
2022-09-25T07:30:09.139Z,23.60
2022-09-25T07:32:37.020Z,23.64
2022-09-25T07:35:05.556Z,23.77
2022-09-25T07:37:33.534Z,24.00
2022-09-25T07:40:01.820Z,24.15
2022-09-25T07:42:30.096Z,24.33
2022-09-25T07:44:57.991Z,24.49
2022-09-25T07:47:25.907Z,24.65
2022-09-25T07:49:53.796Z,24.81
2022-09-25T07:52:21.590Z,24.83
2022-09-25T07:54:49.455Z,24.89
2022-09-25T07:57:20.022Z,25.06
2022-09-25T07:59:47.842Z,25.21
2022-09-25T08:02:15.849Z,25.33
2022-09-25T08:04:43.860Z,25.45
2022-09-25T08:07:12.293Z,25.52
2022-09-25T08:09:40.155Z,25.59
2022-09-25T08:12:11.081Z,25.75
2022-09-25T08:14:39.010Z,25.93
2022-09-25T08:17:06.828Z,26.11
2022-09-25T08:19:35.058Z,26.31
2022-09-25T08:22:02.996Z,26.46
2022-09-25T08:24:30.821Z,26.42
2022-09-25T08:27:01.515Z,26.42
2022-09-25T08:29:30.444Z,26.46
2022-09-25T08:31:58.315Z,26.63
2022-09-25T08:34:42.244Z,26.83
2022-09-25T08:37:10.535Z,27.01
2022-09-25T08:39:38.528Z,27.16
2022-09-25T08:42:06.453Z,27.33
2022-09-25T08:44:36.967Z,27.40
2022-09-25T08:47:25.061Z,27.55
2022-09-25T08:49:58.424Z,27.68
2022-09-25T08:52:26.587Z,27.86
2022-09-25T08:54:54.499Z,28.00
2022-09-25T08:57:28.096Z,28.07
2022-09-25T09:00:01.567Z,28.08
2022-09-25T09:02:37.988Z,28.08
2022-09-25T09:05:07.550Z,28.22
2022-09-25T09:07:37.872Z,28.36
2022-09-25T09:10:09.016Z,28.48
2022-09-25T09:12:38.521Z,28.52
2022-09-25T09:15:14.990Z,28.60
2022-09-25T09:17:43.257Z,28.67
2022-09-25T09:20:15.732Z,28.62
2022-09-25T09:22:46.064Z,28.49
2022-09-25T09:25:19.051Z,28.45
2022-09-25T09:27:58.613Z,28.51
2022-09-25T09:30:30.185Z,28.61
2022-09-25T09:33:10.289Z,28.71
2022-09-25T09:35:42.971Z,28.86
2022-09-25T09:38:15.870Z,29.01
2022-09-25T09:40:48.680Z,29.03
2022-09-25T09:43:23.016Z,28.91
2022-09-25T09:45:54.616Z,28.67
2022-09-25T09:48:28.151Z,28.39
2022-09-25T09:50:59.048Z,28.08
2022-09-25T09:53:31.421Z,27.77
2022-09-25T09:56:01.659Z,27.79
2022-09-25T09:58:31.448Z,28.03
2022-09-25T10:01:11.121Z,28.29
2022-09-25T10:03:49.217Z,28.43
2022-09-25T10:06:22.403Z,28.36
2022-09-25T10:08:50.601Z,28.16
2022-09-25T10:11:19.245Z,28.04
2022-09-25T10:13:48.362Z,27.93
2022-09-25T10:16:17.835Z,27.84
2022-09-25T10:18:48.398Z,27.89
2022-09-25T10:21:18.292Z,27.87
2022-09-25T10:23:49.859Z,27.97
2022-09-25T10:26:28.296Z,27.95
2022-09-25T10:28:57.402Z,27.84
2022-09-25T10:31:27.332Z,27.63
2022-09-25T10:34:02.841Z,27.62
2022-09-25T10:36:39.322Z,27.59
2022-09-25T10:39:44.170Z,27.69
2022-09-25T10:42:26.957Z,27.86
2022-09-25T10:44:58.100Z,27.89
2022-09-25T10:47:50.646Z,27.56
2022-09-25T10:50:20.547Z,27.31
2022-09-25T10:52:53.232Z,27.27
2022-09-25T10:55:24.744Z,27.16
2022-09-25T10:57:56.597Z,26.97
2022-09-25T11:00:25.943Z,26.78
2022-09-25T11:02:55.957Z,26.75
2022-09-25T11:05:26.268Z,26.64
2022-09-25T11:07:55.441Z,26.33
2022-09-25T11:10:25.733Z,26.25
2022-09-25T11:12:54.005Z,26.14
2022-09-25T11:15:22.615Z,25.76
2022-09-25T11:17:51.667Z,25.52
2022-09-25T11:20:28.744Z,25.48
2022-09-25T11:23:04.096Z,25.46
2022-09-25T11:25:35.647Z,25.43
2022-09-25T11:28:08.522Z,25.38
2022-09-25T11:30:40.741Z,25.26
2022-09-25T11:33:12.630Z,25.19
2022-09-25T11:35:45.940Z,25.10
2022-09-25T11:38:40.409Z,25.02
2022-09-25T11:41:14.145Z,24.93
2022-09-25T11:43:55.602Z,24.71
2022-09-25T11:46:29.052Z,24.61
2022-09-25T11:49:02.841Z,24.63
2022-09-25T11:51:35.431Z,24.64
2022-09-25T11:54:31.817Z,24.60
2022-09-25T11:56:59.217Z,24.54
2022-09-25T11:59:31.773Z,24.55
2022-09-25T12:02:04.351Z,24.52
2022-09-25T12:04:44.133Z,24.47
2022-09-25T12:07:24.136Z,24.41
2022-09-25T12:10:06.839Z,24.41
2022-09-25T12:12:40.922Z,24.42
2022-09-25T12:15:16.615Z,24.40
2022-09-25T12:17:52.275Z,24.40
2022-09-25T12:20:30.389Z,24.36
2022-09-25T12:23:08.079Z,24.29
2022-09-25T12:25:47.411Z,24.25
2022-09-25T12:28:19.869Z,24.19
2022-09-25T12:30:56.487Z,24.16
2022-09-25T12:33:32.219Z,24.04
2022-09-25T12:36:03.712Z,23.92
2022-09-25T12:38:38.202Z,23.81
2022-09-25T12:41:10.352Z,23.70
2022-09-25T12:43:41.341Z,23.61
2022-09-25T12:46:13.416Z,23.51
2022-09-25T12:48:44.695Z,23.47
2022-09-25T12:51:16.263Z,23.46
2022-09-25T12:53:48.516Z,23.38
2022-09-25T12:56:23.663Z,23.30
2022-09-25T12:59:03.232Z,23.25
2022-09-25T13:01:35.100Z,23.16
2022-09-25T13:04:15.022Z,23.10
2022-09-25T13:06:47.723Z,23.09
2022-09-25T13:12:20.954Z,23.06
2022-09-25T13:14:51.641Z,23.05
2022-09-25T13:17:19.596Z,23.05
2022-09-25T13:19:47.524Z,23.07
2022-09-25T13:22:20.281Z,23.11
2022-09-25T13:24:51.881Z,23.15
2022-09-25T13:27:21.664Z,23.18
2022-09-25T13:29:57.413Z,23.20
2022-09-25T13:32:28.571Z,23.21
2022-09-25T13:34:58.467Z,23.20
2022-09-25T13:37:28.185Z,23.18
2022-09-25T13:40:14.259Z,23.17
2022-09-25T13:42:44.166Z,23.18
2022-09-25T13:45:28.955Z,23.19
2022-09-25T13:48:01.735Z,23.20
2022-09-25T13:50:34.037Z,23.19
2022-09-25T13:53:18.327Z,23.15
2022-09-25T13:56:01.075Z,23.10
2022-09-25T13:58:31.180Z,23.08
2022-09-25T14:01:00.518Z,23.08
2022-09-25T14:03:34.812Z,23.10
2022-09-25T14:06:04.513Z,23.11
2022-09-25T14:08:33.912Z,23.13
2022-09-25T14:11:10.906Z,23.14
2022-09-25T14:13:46.045Z,23.15
2022-09-25T14:16:19.861Z,23.16
2022-09-25T14:18:54.325Z,23.14
2022-09-25T14:21:24.913Z,23.13
2022-09-25T14:23:53.836Z,23.13
2022-09-25T14:26:24.880Z,23.13
2022-09-25T14:28:54.020Z,23.11
2022-09-25T14:31:30.619Z,23.07
2022-09-25T14:34:12.761Z,23.06
2022-09-25T14:36:48.761Z,23.04
2022-09-25T14:39:28.333Z,23.01
2022-09-25T14:42:19.112Z,23.00
2022-09-25T14:44:55.165Z,22.99
2022-09-25T14:47:29.688Z,22.96
2022-09-25T14:50:01.209Z,22.93
2022-09-25T14:52:31.586Z,22.93
2022-09-25T14:55:00.499Z,22.92
2022-09-25T14:57:30.944Z,22.90
2022-09-25T15:00:03.890Z,22.88
2022-09-25T15:02:34.156Z,22.84
2022-09-25T15:05:16.319Z,22.83
2022-09-25T15:07:44.798Z,22.80
2022-09-25T15:10:25.836Z,22.77
2022-09-25T15:12:54.443Z,22.74
2022-09-25T15:15:22.300Z,22.73
2022-09-25T15:17:52.853Z,22.74
2022-09-25T15:20:28.064Z,22.71
2022-09-25T15:22:57.067Z,22.69
2022-09-25T15:25:27.708Z,22.66
2022-09-25T15:27:55.697Z,22.63
2022-09-25T15:30:25.550Z,22.58
2022-09-25T15:32:59.849Z,22.57
2022-09-25T15:35:29.980Z,22.54
2022-09-25T15:38:07.923Z,22.51
2022-09-25T15:40:35.964Z,22.46
2022-09-25T15:43:10.312Z,22.42
2022-09-25T15:45:41.070Z,22.36
2022-09-25T15:48:20.712Z,22.29
2022-09-25T15:50:49.179Z,22.20
2022-09-25T15:53:22.895Z,22.12
2022-09-25T15:55:59.998Z,22.04
2022-09-25T15:58:27.971Z,21.97
2022-09-25T16:01:15.523Z,21.89
2022-09-25T16:04:04.578Z,21.80
2022-09-25T16:06:38.219Z,21.70
2022-09-25T16:09:09.100Z,21.61
2022-09-25T16:11:42.192Z,21.52
2022-09-25T16:14:19.496Z,21.42
2022-09-25T16:16:48.777Z,21.33
2022-09-25T16:19:40.339Z,21.25
2022-09-25T16:22:16.212Z,21.13
2022-09-25T16:24:48.608Z,21.04
2022-09-25T16:27:21.672Z,20.94
2022-09-25T16:29:49.979Z,20.85
2022-09-25T16:32:19.028Z,20.74
2022-09-25T16:34:52.731Z,20.68
2022-09-25T16:37:21.635Z,20.60
2022-09-25T16:40:07.639Z,20.52
2022-09-25T16:42:39.690Z,20.42
2022-09-25T16:45:15.364Z,20.34
2022-09-25T16:47:48.983Z,20.25
2022-09-25T16:50:18.332Z,20.17
2022-09-25T16:52:46.827Z,20.08
2022-09-25T16:55:16.549Z,20.00
2022-09-25T16:57:46.335Z,19.93
2022-09-25T17:00:15.639Z,19.85
2022-09-25T17:02:44.586Z,19.76
2022-09-25T17:05:17.118Z,19.68
2022-09-25T17:07:48.885Z,19.62
2022-09-25T17:10:17.870Z,19.54
2022-09-25T17:12:52.662Z,19.47
2022-09-25T17:15:23.383Z,19.38
2022-09-25T17:17:53.848Z,19.31
2022-09-25T17:20:22.958Z,19.24
2022-09-25T17:22:51.189Z,19.19
2022-09-25T17:25:22.513Z,19.15
2022-09-25T17:27:50.484Z,19.10
2022-09-25T17:30:18.690Z,19.04
2022-09-25T17:32:50.184Z,18.98
2022-09-25T17:35:32.780Z,18.93
2022-09-25T17:38:01.174Z,18.87
2022-09-25T17:40:30.550Z,18.79
2022-09-25T17:43:00.365Z,18.74
2022-09-25T17:45:31.343Z,18.69
2022-09-25T17:47:59.340Z,18.64
2022-09-25T17:50:27.516Z,18.59
2022-09-25T17:52:55.722Z,18.53
2022-09-25T17:55:24.508Z,18.49
2022-09-25T17:57:52.351Z,18.44
2022-09-25T18:00:20.428Z,18.38
2022-09-25T18:02:51.566Z,18.35
2022-09-25T18:05:19.476Z,18.30
2022-09-25T18:07:47.862Z,18.27
2022-09-25T18:10:17.360Z,18.22
2022-09-25T18:12:45.622Z,18.15
2022-09-25T18:15:13.645Z,18.10
2022-09-25T18:17:41.640Z,18.07
2022-09-25T18:20:29.483Z,18.05
2022-09-25T18:22:57.492Z,18.04
2022-09-25T18:25:25.290Z,18.03
2022-09-25T18:27:53.252Z,18.03
2022-09-25T18:30:22.612Z,18.02
2022-09-25T18:32:50.893Z,18.01
2022-09-25T18:35:19.765Z,18.01
2022-09-25T18:37:48.154Z,17.99
2022-09-25T18:40:17.584Z,17.92
2022-09-25T18:42:47.821Z,17.88
2022-09-25T18:45:15.803Z,17.84
2022-09-25T18:47:45.154Z,17.81
2022-09-25T18:50:16.776Z,17.79
2022-09-25T18:52:49.493Z,17.78
2022-09-25T18:55:17.423Z,17.77
2022-09-25T18:57:47.684Z,17.76
2022-09-25T19:00:15.954Z,17.75
2022-09-25T19:02:44.004Z,17.73
2022-09-25T19:05:19.701Z,17.70
2022-09-25T19:07:47.864Z,17.68
2022-09-25T19:10:15.731Z,17.66
2022-09-25T19:12:44.609Z,17.63
2022-09-25T19:15:12.873Z,17.61
2022-09-25T19:17:40.795Z,17.61
2022-09-25T19:20:09.744Z,17.61
2022-09-25T19:22:38.776Z,17.61
2022-09-25T19:25:07.335Z,17.61
2022-09-25T19:27:35.176Z,17.64
2022-09-25T19:30:03.552Z,17.66
2022-09-25T19:32:31.548Z,17.69
2022-09-25T19:34:59.573Z,17.70
2022-09-25T19:37:29.400Z,17.70
2022-09-25T19:40:15.642Z,17.69
2022-09-25T19:42:44.609Z,17.67
2022-09-25T19:45:13.588Z,17.68
2022-09-25T19:47:41.551Z,17.69
2022-09-25T19:50:10.108Z,17.68
2022-09-25T19:52:38.207Z,17.61
2022-09-25T19:55:06.754Z,17.67
2022-09-25T19:57:36.200Z,17.70
2022-09-25T20:00:04.627Z,17.71
2022-09-25T20:02:32.738Z,17.72
2022-09-25T20:05:00.747Z,17.71
2022-09-25T20:07:29.713Z,17.70
2022-09-25T20:09:57.886Z,17.71
2022-09-25T20:12:25.836Z,17.72
2022-09-25T20:14:54.341Z,17.73
2022-09-25T20:17:22.297Z,17.72
2022-09-25T20:19:53.384Z,17.69
2022-09-25T20:22:25.157Z,17.68
2022-09-25T20:24:53.371Z,17.65
2022-09-25T20:27:23.512Z,17.62
2022-09-25T20:29:51.757Z,17.59
2022-09-25T20:32:19.698Z,17.57
2022-09-25T20:34:47.745Z,17.57
2022-09-25T20:37:15.739Z,17.56
2022-09-25T20:39:43.668Z,17.52
2022-09-25T20:42:11.600Z,17.46
2022-09-25T20:44:39.610Z,17.40
2022-09-25T20:47:07.660Z,17.37
2022-09-25T20:49:35.764Z,17.35
2022-09-25T20:52:03.945Z,17.34
2022-09-25T20:54:38.450Z,17.32
2022-09-25T20:57:09.063Z,17.30
2022-09-25T20:59:40.761Z,17.22
2022-09-25T21:02:24.158Z,17.15
2022-09-25T21:04:52.903Z,17.10
2022-09-25T21:07:21.540Z,17.07
2022-09-25T21:09:49.387Z,17.06
2022-09-25T21:12:17.257Z,17.06
2022-09-25T21:14:45.227Z,17.05
2022-09-25T21:17:13.313Z,17.03
2022-09-25T21:19:41.274Z,17.04
2022-09-25T21:22:09.312Z,17.04
2022-09-25T21:24:37.183Z,17.05
2022-09-25T21:27:04.968Z,17.07
2022-09-25T21:29:33.705Z,17.08
2022-09-25T21:32:03.211Z,17.09
2022-09-25T21:34:31.173Z,17.11
2022-09-25T21:36:59.240Z,17.14
2022-09-25T21:39:27.289Z,17.17
2022-09-25T21:41:55.219Z,17.17
2022-09-25T21:44:24.348Z,17.16
2022-09-25T21:46:52.287Z,17.18
2022-09-25T21:49:21.033Z,17.17
2022-09-25T21:51:49.335Z,17.18
2022-09-25T21:54:17.320Z,17.17
2022-09-25T21:56:45.486Z,17.17
2022-09-25T21:59:14.010Z,17.14
2022-09-25T22:01:42.495Z,17.10
2022-09-25T22:04:11.980Z,17.04
2022-09-25T22:06:40.995Z,17.02
2022-09-25T22:09:11.062Z,17.04
2022-09-25T22:11:39.902Z,17.04
2022-09-25T22:14:23.404Z,17.04
2022-09-25T22:16:52.055Z,17.04
2022-09-25T22:19:20.805Z,17.05
2022-09-25T22:21:49.900Z,17.04
2022-09-25T22:24:18.154Z,17.03
2022-09-25T22:26:47.080Z,17.01
2022-09-25T22:29:15.907Z,16.99
2022-09-25T22:31:45.281Z,16.98
2022-09-25T22:34:17.732Z,16.99
2022-09-25T22:36:46.207Z,16.97
2022-09-25T22:39:15.680Z,16.93
2022-09-25T22:41:43.837Z,16.92
2022-09-25T22:44:11.720Z,16.90
2022-09-25T22:46:39.732Z,16.89
2022-09-25T22:49:07.837Z,16.89
2022-09-25T22:51:35.826Z,16.90
2022-09-25T22:54:03.801Z,16.90
2022-09-25T22:56:32.446Z,16.88
2022-09-25T22:59:01.216Z,16.84
2022-09-25T23:01:30.844Z,16.82
2022-09-25T23:04:00.169Z,16.78
2022-09-25T23:06:28.706Z,16.69
2022-09-25T23:08:57.389Z,16.60
2022-09-25T23:11:25.876Z,16.60
2022-09-25T23:13:57.584Z,16.62
2022-09-25T23:16:25.972Z,16.66
2022-09-25T23:18:55.517Z,16.67
2022-09-25T23:21:23.603Z,16.66
2022-09-25T23:23:55.220Z,16.66
2022-09-25T23:26:23.223Z,16.66
2022-09-25T23:28:51.246Z,16.67
2022-09-25T23:31:19.425Z,16.68
2022-09-25T23:33:47.462Z,16.66
2022-09-25T23:36:17.072Z,16.65
2022-09-25T23:38:45.271Z,16.64
2022-09-25T23:41:15.100Z,16.62
2022-09-25T23:43:43.595Z,16.62
2022-09-25T23:46:12.083Z,16.63
2022-09-25T23:48:40.115Z,16.63
2022-09-25T23:51:08.234Z,16.62
2022-09-25T23:53:36.173Z,16.60
2022-09-25T23:56:08.162Z,16.57
2022-09-25T23:58:36.343Z,16.53
